ZKJEE NZHN-NZNP
Flight info
| Callsign | ZKJEE |
|---|---|
| Flight time | 0h 32m |
| Altitude | 10000 |
| Route | DADUK H479 HARVO |
| Aircraft | DHC6/L-SDFGR/C |
Departure
| Time | 2026-05-05 00:50 |
|---|---|
| Airport | Hamilton International Airport (NZHN) |
Arrival
| Time | 2026-05-05 01:22 |
|---|---|
| Airport | New Plymouth Airport (NZNP) |
| Time | Latitude | Longitude | Altitude | Speed | Heading |
|---|---|---|---|---|---|
| 2026-05-05 00:44 | -37.85819 | 175.33529 | 181 ft | 0 kts | 196° |
| 2026-05-05 00:49 | -37.85820 | 175.33529 | 181 ft | 4 kts | 196° |
| 2026-05-05 00:49 | -37.86175 | 175.33400 | 182 ft | 97 kts | 196° |
| 2026-05-05 00:49 | -37.86932 | 175.33124 | 430 ft | 115 kts | 197° |
| 2026-05-05 00:50 | -37.87706 | 175.32681 | 798 ft | 128 kts | 208° |
| 2026-05-05 00:50 | -37.88497 | 175.32106 | 1165 ft | 135 kts | 209° |
| 2026-05-05 00:50 | -37.89326 | 175.31486 | 1533 ft | 140 kts | 210° |
| 2026-05-05 00:50 | -37.90171 | 175.30851 | 1889 ft | 143 kts | 212° |
| 2026-05-05 00:51 | -37.91028 | 175.30203 | 2243 ft | 145 kts | 212° |
| 2026-05-05 00:51 | -37.91915 | 175.29525 | 2585 ft | 150 kts | 210° |
| 2026-05-05 00:51 | -37.92826 | 175.28846 | 2942 ft | 153 kts | 214° |
| 2026-05-05 00:51 | -37.93743 | 175.28148 | 3294 ft | 156 kts | 214° |
| 2026-05-05 00:52 | -37.94667 | 175.27443 | 3642 ft | 158 kts | 214° |
| 2026-05-05 00:52 | -37.95621 | 175.26715 | 3997 ft | 160 kts | 212° |
| 2026-05-05 00:52 | -37.96571 | 175.25988 | 4347 ft | 161 kts | 210° |
| 2026-05-05 00:52 | -37.97531 | 175.25261 | 4698 ft | 162 kts | 212° |
| 2026-05-05 00:53 | -37.98502 | 175.24522 | 5051 ft | 163 kts | 211° |
| 2026-05-05 00:53 | -37.99411 | 175.23673 | 5401 ft | 164 kts | 221° |
| 2026-05-05 00:53 | -38.00261 | 175.22703 | 5754 ft | 164 kts | 223° |
| 2026-05-05 00:53 | -38.01098 | 175.21724 | 6103 ft | 165 kts | 223° |
| 2026-05-05 00:54 | -38.01943 | 175.20733 | 6453 ft | 166 kts | 223° |
| 2026-05-05 00:54 | -38.02805 | 175.19741 | 6807 ft | 166 kts | 222° |
| 2026-05-05 00:54 | -38.03657 | 175.18769 | 7154 ft | 167 kts | 222° |
| 2026-05-05 00:54 | -38.04529 | 175.17774 | 7507 ft | 167 kts | 222° |
| 2026-05-05 00:55 | -38.05395 | 175.16784 | 7858 ft | 168 kts | 222° |
| 2026-05-05 00:55 | -38.06248 | 175.15804 | 8202 ft | 168 kts | 222° |
| 2026-05-05 00:55 | -38.07128 | 175.14791 | 8557 ft | 169 kts | 222° |
| 2026-05-05 00:55 | -38.08000 | 175.13788 | 8907 ft | 169 kts | 222° |
| 2026-05-05 00:56 | -38.08870 | 175.12786 | 9256 ft | 170 kts | 222° |
| 2026-05-05 00:56 | -38.09745 | 175.11776 | 9605 ft | 170 kts | 222° |
| 2026-05-05 00:56 | -38.10622 | 175.10760 | 9872 ft | 175 kts | 222° |
| 2026-05-05 00:56 | -38.11549 | 175.09687 | 9978 ft | 186 kts | 222° |
| 2026-05-05 00:57 | -38.12535 | 175.08545 | 10003 ft | 196 kts | 222° |
| 2026-05-05 00:57 | -38.13556 | 175.07357 | 10004 ft | 203 kts | 222° |
| 2026-05-05 00:57 | -38.14611 | 175.06128 | 10001 ft | 202 kts | 222° |
| 2026-05-05 00:57 | -38.15635 | 175.04930 | 9999 ft | 201 kts | 222° |
| 2026-05-05 00:58 | -38.16651 | 175.03750 | 9999 ft | 200 kts | 222° |
| 2026-05-05 00:58 | -38.17685 | 175.02548 | 10000 ft | 199 kts | 223° |
| 2026-05-05 00:58 | -38.18704 | 175.01359 | 10000 ft | 199 kts | 222° |
| 2026-05-05 00:58 | -38.19740 | 175.00155 | 10000 ft | 199 kts | 222° |
| 2026-05-05 00:59 | -38.20755 | 174.98968 | 10000 ft | 199 kts | 222° |
| 2026-05-05 00:59 | -38.21774 | 174.97785 | 10000 ft | 199 kts | 222° |
| 2026-05-05 00:59 | -38.22798 | 174.96597 | 10000 ft | 199 kts | 220° |
| 2026-05-05 00:59 | -38.23872 | 174.95494 | 10000 ft | 199 kts | 218° |
| 2026-05-05 01:00 | -38.24960 | 174.94422 | 10000 ft | 199 kts | 217° |
| 2026-05-05 01:00 | -38.26057 | 174.93349 | 10001 ft | 199 kts | 217° |
| 2026-05-05 01:00 | -38.27158 | 174.92274 | 10001 ft | 199 kts | 217° |
| 2026-05-05 01:00 | -38.28238 | 174.91221 | 10001 ft | 199 kts | 217° |
| 2026-05-05 01:01 | -38.29363 | 174.90126 | 10002 ft | 199 kts | 217° |
| 2026-05-05 01:01 | -38.30446 | 174.89055 | 10002 ft | 199 kts | 218° |
| 2026-05-05 01:01 | -38.31539 | 174.87962 | 10003 ft | 200 kts | 218° |
| 2026-05-05 01:01 | -38.32619 | 174.86881 | 10003 ft | 200 kts | 218° |
| 2026-05-05 01:02 | -38.33720 | 174.85787 | 10004 ft | 200 kts | 218° |
| 2026-05-05 01:02 | -38.34840 | 174.84676 | 10004 ft | 200 kts | 218° |
| 2026-05-05 01:02 | -38.35920 | 174.83605 | 10006 ft | 200 kts | 218° |
| 2026-05-05 01:02 | -38.37020 | 174.82514 | 10007 ft | 200 kts | 218° |
| 2026-05-05 01:03 | -38.38128 | 174.81416 | 10007 ft | 200 kts | 218° |
| 2026-05-05 01:03 | -38.39205 | 174.80348 | 10007 ft | 200 kts | 218° |
| 2026-05-05 01:03 | -38.40304 | 174.79261 | 10008 ft | 200 kts | 218° |
| 2026-05-05 01:03 | -38.41405 | 174.78169 | 10008 ft | 200 kts | 218° |
| 2026-05-05 01:04 | -38.42493 | 174.77072 | 10008 ft | 201 kts | 218° |
| 2026-05-05 01:04 | -38.44684 | 174.74874 | 10008 ft | 201 kts | 218° |
| 2026-05-05 01:04 | -38.45799 | 174.73763 | 10009 ft | 201 kts | 218° |
| 2026-05-05 01:05 | -38.46877 | 174.72676 | 10009 ft | 201 kts | 218° |
| 2026-05-05 01:05 | -38.47990 | 174.71564 | 10010 ft | 201 kts | 219° |
| 2026-05-05 01:05 | -38.49092 | 174.70466 | 10011 ft | 201 kts | 218° |
| 2026-05-05 01:05 | -38.50195 | 174.69377 | 10012 ft | 201 kts | 219° |
| 2026-05-05 01:06 | -38.51279 | 174.68293 | 10014 ft | 201 kts | 219° |
| 2026-05-05 01:06 | -38.52392 | 174.67175 | 10014 ft | 201 kts | 219° |
| 2026-05-05 01:06 | -38.53489 | 174.66071 | 10014 ft | 201 kts | 219° |
| 2026-05-05 01:06 | -38.54584 | 174.64969 | 10014 ft | 201 kts | 219° |
| 2026-05-05 01:07 | -38.55688 | 174.63867 | 10014 ft | 201 kts | 219° |
| 2026-05-05 01:07 | -38.56793 | 174.62760 | 10014 ft | 201 kts | 219° |
| 2026-05-05 01:07 | -38.57889 | 174.61658 | 10014 ft | 201 kts | 219° |
| 2026-05-05 01:07 | -38.58992 | 174.60560 | 10006 ft | 202 kts | 219° |
| 2026-05-05 01:08 | -38.60090 | 174.59463 | 10006 ft | 202 kts | 219° |
| 2026-05-05 01:08 | -38.61201 | 174.58333 | 10006 ft | 202 kts | 219° |
| 2026-05-05 01:08 | -38.62311 | 174.57219 | 10006 ft | 202 kts | 219° |
| 2026-05-05 01:08 | -38.63411 | 174.56118 | 10006 ft | 201 kts | 219° |
| 2026-05-05 01:09 | -38.64502 | 174.55026 | 10006 ft | 200 kts | 219° |
| 2026-05-05 01:09 | -38.65601 | 174.53926 | 10006 ft | 200 kts | 219° |
| 2026-05-05 01:09 | -38.66690 | 174.52836 | 10006 ft | 200 kts | 219° |
| 2026-05-05 01:09 | -38.67782 | 174.51744 | 10007 ft | 199 kts | 219° |
| 2026-05-05 01:10 | -38.68878 | 174.50648 | 10008 ft | 199 kts | 219° |
| 2026-05-05 01:10 | -38.69981 | 174.49536 | 10008 ft | 199 kts | 220° |
| 2026-05-05 01:10 | -38.71057 | 174.48443 | 9990 ft | 199 kts | 219° |
| 2026-05-05 01:10 | -38.72078 | 174.47408 | 9732 ft | 178 kts | 220° |
| 2026-05-05 01:11 | -38.73025 | 174.46451 | 9468 ft | 164 kts | 219° |
| 2026-05-05 01:11 | -38.73909 | 174.45633 | 9209 ft | 155 kts | 210° |
| 2026-05-05 01:11 | -38.74874 | 174.45071 | 8957 ft | 149 kts | 202° |
| 2026-05-05 01:11 | -38.75806 | 174.44587 | 8704 ft | 144 kts | 202° |
| 2026-05-05 01:12 | -38.76735 | 174.44092 | 8444 ft | 140 kts | 203° |
| 2026-05-05 01:12 | -38.77620 | 174.43618 | 8191 ft | 137 kts | 203° |
| 2026-05-05 01:12 | -38.78485 | 174.43156 | 7941 ft | 135 kts | 203° |
| 2026-05-05 01:12 | -38.79361 | 174.42689 | 7684 ft | 133 kts | 203° |
| 2026-05-05 01:13 | -38.80202 | 174.42241 | 7435 ft | 132 kts | 203° |
| 2026-05-05 01:13 | -38.81039 | 174.41787 | 7185 ft | 131 kts | 204° |
| 2026-05-05 01:13 | -38.81885 | 174.41319 | 6930 ft | 130 kts | 204° |
| 2026-05-05 01:13 | -38.82713 | 174.40862 | 6680 ft | 130 kts | 204° |
| 2026-05-05 01:14 | -38.83538 | 174.40407 | 6431 ft | 129 kts | 204° |
| 2026-05-05 01:14 | -38.84361 | 174.39955 | 6182 ft | 129 kts | 204° |
| 2026-05-05 01:14 | -38.85177 | 174.39508 | 5935 ft | 128 kts | 204° |
| 2026-05-05 01:14 | -38.86004 | 174.39056 | 5683 ft | 128 kts | 204° |
| 2026-05-05 01:15 | -38.86821 | 174.38610 | 5434 ft | 128 kts | 204° |
| 2026-05-05 01:15 | -38.87625 | 174.38162 | 5262 ft | 119 kts | 200° |
| 2026-05-05 01:15 | -38.88348 | 174.37758 | 5063 ft | 111 kts | 201° |
| 2026-05-05 01:15 | -38.89048 | 174.37375 | 4793 ft | 111 kts | 196° |
| 2026-05-05 01:16 | -38.89794 | 174.36967 | 4501 ft | 116 kts | 197° |
| 2026-05-05 01:16 | -38.90528 | 174.36557 | 4252 ft | 117 kts | 197° |
| 2026-05-05 01:16 | -38.91277 | 174.36143 | 4001 ft | 117 kts | 197° |
| 2026-05-05 01:16 | -38.92032 | 174.35725 | 3750 ft | 118 kts | 198° |
| 2026-05-05 01:17 | -38.92784 | 174.35307 | 3503 ft | 119 kts | 199° |
| 2026-05-05 01:17 | -38.93553 | 174.34878 | 3252 ft | 120 kts | 199° |
| 2026-05-05 01:17 | -38.94325 | 174.34450 | 3001 ft | 121 kts | 202° |
| 2026-05-05 01:17 | -38.95086 | 174.33998 | 2752 ft | 122 kts | 213° |
| 2026-05-05 01:18 | -38.95555 | 174.33173 | 2559 ft | 111 kts | 250° |
| 2026-05-05 01:18 | -38.95861 | 174.32273 | 2345 ft | 108 kts | 252° |
| 2026-05-05 01:18 | -38.96158 | 174.31385 | 2092 ft | 110 kts | 251° |
| 2026-05-05 01:18 | -38.96470 | 174.30460 | 1830 ft | 114 kts | 250° |
| 2026-05-05 01:19 | -38.96792 | 174.29521 | 1586 ft | 114 kts | 251° |
| 2026-05-05 01:19 | -38.97105 | 174.28599 | 1346 ft | 114 kts | 251° |
| 2026-05-05 01:19 | -38.97428 | 174.27668 | 1097 ft | 113 kts | 250° |
| 2026-05-05 01:19 | -38.97748 | 174.26747 | 846 ft | 112 kts | 250° |
| 2026-05-05 01:20 | -38.98050 | 174.25840 | 634 ft | 108 kts | 249° |
| 2026-05-05 01:20 | -38.98284 | 174.25120 | 534 ft | 99 kts | 246° |
| 2026-05-05 01:20 | -38.98567 | 174.24392 | 495 ft | 84 kts | 246° |
| 2026-05-05 01:20 | -38.98805 | 174.23675 | 427 ft | 95 kts | 246° |
| 2026-05-05 01:21 | -38.99081 | 174.22831 | 440 ft | 109 kts | 246° |
| 2026-05-05 01:21 | -38.99395 | 174.21907 | 553 ft | 109 kts | 245° |
| 2026-05-05 01:21 | -38.99712 | 174.21036 | 606 ft | 110 kts | 248° |
| 2026-05-05 01:21 | -39.00016 | 174.20096 | 612 ft | 121 kts | 247° |
| 2026-05-05 01:22 | -39.00343 | 174.19081 | 406 ft | 120 kts | 248° |
| 2026-05-05 01:22 | -39.00674 | 174.18095 | 133 ft | 121 kts | 243° |
| 2026-05-05 01:22 | -39.00950 | 174.17203 | 106 ft | 84 kts | 249° |
| 2026-05-05 01:22 | -39.01089 | 174.16744 | 99 ft | 26 kts | 246° |
| 2026-05-05 01:23 | -39.01105 | 174.16701 | 99 ft | 0 kts | 239° |